createdAt,value
2022-10-11T00:02:55.300Z,99.90
2022-10-11T00:08:01.759Z,99.90
2022-10-11T00:13:06.011Z,99.90
2022-10-11T00:18:10.933Z,99.90
2022-10-11T00:23:20.560Z,99.90
2022-10-11T00:28:24.402Z,99.90
2022-10-11T00:33:27.592Z,99.90
2022-10-11T00:38:34.440Z,99.90
2022-10-11T00:43:38.194Z,99.90
2022-10-11T00:48:46.932Z,99.90
2022-10-11T00:53:52.557Z,99.90
2022-10-11T00:58:59.536Z,99.90
2022-10-11T01:04:05.137Z,99.90
2022-10-11T01:09:12.416Z,99.90
2022-10-11T01:14:53.483Z,99.90
2022-10-11T01:20:31.125Z,99.90
2022-10-11T01:25:39.729Z,99.90
2022-10-11T01:30:48.301Z,99.90
2022-10-11T01:35:59.717Z,99.90
2022-10-11T01:41:09.144Z,99.90
2022-10-11T01:46:16.892Z,99.90
2022-10-11T01:51:21.860Z,99.90
2022-10-11T01:56:36.327Z,99.90
2022-10-11T02:01:55.832Z,99.90
2022-10-11T02:07:05.393Z,99.90
2022-10-11T02:12:12.394Z,99.90
2022-10-11T02:17:21.617Z,99.90
2022-10-11T02:22:30.349Z,99.90
2022-10-11T02:27:37.705Z,99.90
2022-10-11T02:32:45.760Z,99.90
2022-10-11T02:37:55.847Z,99.90
2022-10-11T02:43:04.945Z,99.90
2022-10-11T02:48:10.921Z,99.90
2022-10-11T02:53:15.074Z,99.90
2022-10-11T02:58:19.996Z,99.90
2022-10-11T03:03:24.383Z,99.90
2022-10-11T03:08:29.740Z,99.90
2022-10-11T03:13:32.014Z,99.90
2022-10-11T03:18:36.639Z,99.90
2022-10-11T03:23:38.879Z,99.90
2022-10-11T03:28:41.122Z,99.90
2022-10-11T03:33:45.010Z,99.90
2022-10-11T03:38:47.420Z,99.90
2022-10-11T03:43:49.640Z,99.90
2022-10-11T03:48:53.198Z,99.90
2022-10-11T03:53:55.395Z,99.90
2022-10-11T03:58:57.574Z,99.90
2022-10-11T04:04:01.139Z,99.90
2022-10-11T04:09:04.234Z,99.90
2022-10-11T04:14:06.390Z,99.90
2022-10-11T04:19:09.991Z,99.90
2022-10-11T04:24:12.986Z,99.90
2022-10-11T04:29:15.196Z,99.90
2022-10-11T04:34:19.228Z,99.90
2022-10-11T04:39:21.478Z,99.90
2022-10-11T04:44:23.911Z,99.90
2022-10-11T04:49:27.580Z,99.90
2022-10-11T04:54:29.908Z,99.90
2022-10-11T04:59:32.376Z,99.90
2022-10-11T05:04:38.640Z,99.90
2022-10-11T05:09:40.818Z,99.90
2022-10-11T05:14:43.078Z,99.90
2022-10-11T05:19:46.682Z,99.90
2022-10-11T05:24:48.900Z,99.90
2022-10-11T05:29:51.243Z,99.90
2022-10-11T05:34:54.871Z,99.90
2022-10-11T05:39:57.249Z,99.90
2022-10-11T05:44:59.725Z,99.90
2022-10-11T05:50:03.232Z,99.90
2022-10-11T05:55:05.799Z,99.90
2022-10-11T06:00:09.033Z,99.90
2022-10-11T06:05:13.035Z,99.90
2022-10-11T06:10:15.166Z,99.90
2022-10-11T06:15:17.466Z,99.90
2022-10-11T06:20:21.318Z,99.90
2022-10-11T06:25:23.518Z,99.90
2022-10-11T06:30:25.770Z,99.90
2022-10-11T06:35:29.334Z,99.90
2022-10-11T06:40:31.415Z,99.90
2022-10-11T06:45:33.525Z,99.90
2022-10-11T06:50:58.569Z,99.90
2022-10-11T06:56:04.512Z,99.90
2022-10-11T07:01:08.801Z,99.90
2022-10-11T07:06:14.185Z,99.90
2022-10-11T07:11:18.359Z,99.90
2022-10-11T07:16:21.553Z,99.90
2022-10-11T07:21:25.400Z,99.90
2022-10-11T07:26:27.592Z,99.90
2022-10-11T07:31:29.744Z,99.90
2022-10-11T07:36:33.530Z,99.90
2022-10-11T07:41:38.164Z,99.90
2022-10-11T07:46:42.911Z,99.90
2022-10-11T07:51:46.370Z,99.90
2022-10-11T07:56:51.282Z,99.90
2022-10-11T08:01:53.462Z,99.90
2022-10-11T08:06:57.016Z,99.90
2022-10-11T08:11:59.195Z,99.90
2022-10-11T08:17:02.468Z,99.90
2022-10-11T08:22:06.135Z,99.90
2022-10-11T08:27:08.216Z,99.90
2022-10-11T08:32:12.216Z,99.90
2022-10-11T08:37:15.735Z,99.90
2022-10-11T08:42:25.708Z,99.90
2022-10-11T08:47:31.798Z,99.90
2022-10-11T08:52:46.033Z,99.90
2022-10-11T08:57:53.201Z,99.90
2022-10-11T09:03:09.238Z,99.90
2022-10-11T09:08:22.491Z,99.90
2022-10-11T09:13:41.808Z,99.90
2022-10-11T09:19:10.852Z,99.90
2022-10-11T09:24:45.836Z,99.90
2022-10-11T09:29:58.402Z,99.80
2022-10-11T09:35:11.307Z,98.80
2022-10-11T09:40:36.345Z,99.60
2022-10-11T09:45:38.834Z,99.50
2022-10-11T09:50:40.993Z,99.60
2022-10-11T09:55:52.324Z,99.40
2022-10-11T10:01:07.648Z,99.50
2022-10-11T10:06:16.488Z,98.90
2022-10-11T10:11:21.060Z,98.80
2022-10-11T10:16:25.944Z,97.50
2022-10-11T10:21:31.134Z,96.40
2022-10-11T10:26:35.031Z,96.30
2022-10-11T10:32:08.851Z,96.10
2022-10-11T10:37:09.063Z,95.00
2022-10-11T10:42:17.636Z,94.60
2022-10-11T10:47:30.217Z,94.00
2022-10-11T10:52:48.090Z,92.40
2022-10-11T10:58:05.339Z,91.50
2022-10-11T11:03:13.459Z,92.40
2022-10-11T11:08:23.843Z,91.80
2022-10-11T11:13:42.493Z,89.90
2022-10-11T11:18:54.631Z,90.10
2022-10-11T11:24:06.345Z,83.90
2022-10-11T11:29:20.107Z,85.00
2022-10-11T11:34:25.116Z,86.00
2022-10-11T11:39:31.774Z,85.00
2022-10-11T11:44:39.652Z,83.50
2022-10-11T11:49:47.770Z,81.10
2022-10-11T11:54:58.988Z,79.10
2022-10-11T12:00:08.276Z,77.40
2022-10-11T12:10:25.119Z,76.90
2022-10-11T12:15:28.654Z,75.60
2022-10-11T12:20:32.737Z,74.80
2022-10-11T12:25:44.209Z,75.40
2022-10-11T12:31:04.522Z,75.30
2022-10-11T12:36:32.720Z,73.40
2022-10-11T12:41:51.693Z,75.20
2022-10-11T12:47:28.429Z,71.30
2022-10-11T12:52:41.093Z,70.80
2022-10-11T12:58:20.234Z,68.10
2022-10-11T13:03:32.791Z,65.50
2022-10-11T13:08:37.901Z,67.60
2022-10-11T13:13:43.728Z,66.60
2022-10-11T13:18:49.219Z,65.80
2022-10-11T13:23:55.300Z,67.30
2022-10-11T13:28:57.862Z,68.00
2022-10-11T13:34:01.390Z,67.80
2022-10-11T13:39:03.706Z,66.70
2022-10-11T13:44:06.101Z,65.70
2022-10-11T13:49:30.024Z,68.50
2022-10-11T13:55:09.103Z,68.10
2022-10-11T14:00:23.703Z,67.60
2022-10-11T14:05:32.576Z,66.60
2022-10-11T14:10:35.349Z,67.50
2022-10-11T14:15:39.140Z,66.70
2022-10-11T14:20:45.157Z,66.40
2022-10-11T14:25:47.274Z,66.20
2022-10-11T14:30:49.417Z,65.00
2022-10-11T14:35:53.012Z,67.20
2022-10-11T14:40:55.131Z,67.90
2022-10-11T14:45:57.234Z,68.20
2022-10-11T14:51:04.034Z,69.10
2022-10-11T14:56:06.947Z,70.30
2022-10-11T15:01:12.848Z,70.90
2022-10-11T15:06:20.551Z,73.20
2022-10-11T15:11:24.365Z,72.90
2022-10-11T15:16:26.985Z,75.00
2022-10-11T15:21:31.039Z,76.30
2022-10-11T15:26:34.024Z,76.70
2022-10-11T15:31:36.125Z,77.40
2022-10-11T15:36:40.046Z,77.60
2022-10-11T15:41:42.158Z,77.80
2022-10-11T15:46:44.414Z,78.70
2022-10-11T15:51:47.943Z,79.10
2022-10-11T15:56:50.067Z,80.90
2022-10-11T16:01:52.227Z,82.60
2022-10-11T16:06:55.753Z,83.90
2022-10-11T16:11:57.876Z,85.20
2022-10-11T16:17:02.874Z,86.40
2022-10-11T16:22:06.350Z,88.60
2022-10-11T16:27:08.529Z,89.80
2022-10-11T16:32:10.730Z,90.80
2022-10-11T16:37:14.507Z,91.50
2022-10-11T16:42:16.761Z,92.10
2022-10-11T16:47:19.469Z,92.70
2022-10-11T16:52:22.987Z,93.30
2022-10-11T16:57:25.397Z,94.10
2022-10-11T17:02:32.335Z,96.10
2022-10-11T17:07:36.388Z,96.80
2022-10-11T17:12:38.820Z,97.10
2022-10-11T17:17:41.005Z,97.30
2022-10-11T17:22:44.903Z,98.30
2022-10-11T17:27:47.027Z,98.90
2022-10-11T17:32:49.644Z,98.90
2022-10-11T17:37:53.440Z,99.10
2022-10-11T17:42:55.982Z,99.90
2022-10-11T17:48:00.936Z,99.90
2022-10-11T17:53:04.843Z,99.90
2022-10-11T17:58:07.348Z,99.90
2022-10-11T18:03:10.257Z,99.90
2022-10-11T18:08:15.562Z,99.90
2022-10-11T18:13:18.873Z,99.90
2022-10-11T18:18:21.560Z,99.90
2022-10-11T18:23:25.835Z,99.90
2022-10-11T18:28:28.074Z,99.90
2022-10-11T18:33:30.452Z,99.90
2022-10-11T18:38:35.802Z,99.90
2022-10-11T18:43:38.867Z,99.90
2022-10-11T18:48:42.664Z,99.90
2022-10-11T18:53:47.392Z,99.90
2022-10-11T18:58:51.140Z,99.90
2022-10-11T19:03:56.632Z,99.90
2022-10-11T19:09:03.700Z,99.90
2022-10-11T19:14:08.799Z,99.90
2022-10-11T19:19:15.133Z,99.90
2022-10-11T19:24:20.365Z,99.90
2022-10-11T19:29:26.672Z,99.90
2022-10-11T19:34:31.501Z,99.90
2022-10-11T19:39:35.327Z,99.90
2022-10-11T19:44:39.673Z,99.90
2022-10-11T19:49:42.309Z,99.90
2022-10-11T19:54:47.446Z,99.90
2022-10-11T19:59:51.173Z,99.90
2022-10-11T20:04:57.263Z,99.90
2022-10-11T20:10:06.345Z,99.90
2022-10-11T20:15:13.237Z,99.90
2022-10-11T20:20:17.714Z,99.90
2022-10-11T20:25:24.508Z,99.90
2022-10-11T20:30:29.560Z,99.90
2022-10-11T20:35:33.547Z,99.90
2022-10-11T20:40:42.349Z,99.90
2022-10-11T20:45:45.825Z,99.90
2022-10-11T20:50:48.775Z,99.90
2022-10-11T20:55:55.810Z,99.90
2022-10-11T21:01:00.532Z,99.90
2022-10-11T21:06:04.576Z,99.90
2022-10-11T21:11:13.979Z,99.90
2022-10-11T21:16:18.676Z,99.90
2022-10-11T21:21:24.192Z,99.90
2022-10-11T21:26:31.656Z,99.90
2022-10-11T21:31:37.419Z,99.90
2022-10-11T21:36:43.171Z,99.90
2022-10-11T21:41:50.691Z,99.90
2022-10-11T21:47:06.745Z,99.90
2022-10-11T21:52:13.274Z,99.90
2022-10-11T21:57:19.511Z,99.90
2022-10-11T22:02:24.827Z,99.90
2022-10-11T22:07:30.746Z,99.90
2022-10-11T22:12:35.617Z,99.90
2022-10-11T22:17:38.809Z,99.90
2022-10-11T22:22:42.473Z,99.90
2022-10-11T22:27:49.889Z,99.90
2022-10-11T22:32:55.866Z,99.90
2022-10-11T22:37:59.448Z,99.90
2022-10-11T22:43:04.160Z,99.90
2022-10-11T22:48:07.512Z,99.90
2022-10-11T22:53:13.499Z,99.90
2022-10-11T22:58:19.255Z,99.90
2022-10-11T23:03:25.293Z,99.90
2022-10-11T23:08:30.485Z,99.90
2022-10-11T23:13:35.076Z,99.90
2022-10-11T23:18:41.014Z,99.90
2022-10-11T23:23:45.847Z,99.90
2022-10-11T23:28:55.217Z,99.90
2022-10-11T23:33:59.416Z,99.90
2022-10-11T23:39:04.748Z,99.90
2022-10-11T23:44:11.022Z,99.90
2022-10-11T23:49:17.208Z,99.90
2022-10-11T23:54:21.104Z,99.90
2022-10-11T23:59:32.017Z,99.90
